createdAt,value
2022-10-31T00:01:36.510Z,71.38
2022-10-31T00:04:05.419Z,71.06
2022-10-31T00:06:33.198Z,70.84
2022-10-31T00:09:04.855Z,70.58
2022-10-31T00:11:32.508Z,70.86
2022-10-31T00:14:00.471Z,71.10
2022-10-31T00:16:30.047Z,71.20
2022-10-31T00:19:02.709Z,71.13
2022-10-31T00:21:31.664Z,70.99
2022-10-31T00:24:00.934Z,70.70
2022-10-31T00:26:31.364Z,71.06
2022-10-31T00:29:00.999Z,71.33
2022-10-31T00:31:28.337Z,71.44
2022-10-31T00:33:55.635Z,72.25
2022-10-31T00:36:22.994Z,71.23
2022-10-31T00:38:50.378Z,71.21
2022-10-31T00:41:19.128Z,71.40
2022-10-31T00:43:46.791Z,72.02
2022-10-31T00:46:14.659Z,71.93
2022-10-31T00:48:42.630Z,71.58
2022-10-31T00:51:11.352Z,71.35
2022-10-31T00:53:38.624Z,71.04
2022-10-31T00:56:07.066Z,71.34
2022-10-31T00:58:34.386Z,71.38
2022-10-31T01:01:01.774Z,71.40
2022-10-31T01:03:35.332Z,71.63
2022-10-31T01:06:08.124Z,71.63
2022-10-31T01:08:37.792Z,71.64
2022-10-31T01:11:22.184Z,72.06
2022-10-31T01:13:55.975Z,71.82
2022-10-31T01:16:28.182Z,72.61
2022-10-31T01:18:55.459Z,72.38
2022-10-31T01:21:28.726Z,72.20
2022-10-31T01:23:58.248Z,71.79
2022-10-31T01:26:33.388Z,72.19
2022-10-31T01:29:08.038Z,71.92
2022-10-31T01:31:40.305Z,72.45
2022-10-31T01:34:15.049Z,72.55
2022-10-31T01:36:42.816Z,72.15
2022-10-31T01:39:15.558Z,72.75
2022-10-31T01:41:50.810Z,72.56
2022-10-31T01:44:18.628Z,72.56
2022-10-31T01:47:20.557Z,72.69
2022-10-31T01:50:00.439Z,72.43
2022-10-31T01:53:03.636Z,72.33
2022-10-31T01:55:38.375Z,72.45
2022-10-31T02:01:08.197Z,72.33
2022-10-31T02:03:35.908Z,72.58
2022-10-31T02:06:08.147Z,72.44
2022-10-31T02:08:38.210Z,72.83
2022-10-31T02:11:06.349Z,72.82
2022-10-31T02:13:35.655Z,73.03
2022-10-31T02:16:02.942Z,73.39
2022-10-31T02:18:31.528Z,72.64
2022-10-31T02:21:31.394Z,73.57
2022-10-31T02:25:57.363Z,73.38
2022-10-31T02:29:20.884Z,72.94
2022-10-31T02:32:22.154Z,73.15
2022-10-31T02:35:48.816Z,72.82
2022-10-31T02:39:03.956Z,73.35
2022-10-31T02:42:39.639Z,73.46
2022-10-31T02:45:36.647Z,73.32
2022-10-31T02:48:19.918Z,73.46
2022-10-31T02:51:01.818Z,73.24
2022-10-31T02:53:35.915Z,73.29
2022-10-31T02:56:15.934Z,73.60
2022-10-31T02:59:01.824Z,72.78
2022-10-31T03:02:19.014Z,73.12
2022-10-31T03:05:25.852Z,73.55
2022-10-31T03:08:36.732Z,73.47
2022-10-31T03:11:09.881Z,73.24
2022-10-31T03:14:16.788Z,73.43
2022-10-31T03:16:56.944Z,72.93
2022-10-31T03:19:46.718Z,72.80
2022-10-31T03:22:29.743Z,73.04
2022-10-31T03:24:58.633Z,72.92
2022-10-31T03:27:31.674Z,73.03
2022-10-31T03:30:06.634Z,72.67
2022-10-31T03:32:49.890Z,73.28
2022-10-31T03:35:23.630Z,73.38
2022-10-31T03:37:54.615Z,73.22
2022-10-31T03:40:26.992Z,73.15
2022-10-31T03:43:04.347Z,73.16
2022-10-31T03:45:33.597Z,73.14
2022-10-31T03:48:01.707Z,73.31
2022-10-31T03:51:07.183Z,73.15
2022-10-31T03:53:48.664Z,73.18
2022-10-31T03:56:41.201Z,73.15
2022-10-31T03:59:22.613Z,73.32
2022-10-31T04:02:00.064Z,73.96
2022-10-31T04:04:29.534Z,73.80
2022-10-31T04:07:00.259Z,73.70
2022-10-31T04:09:32.166Z,73.48
2022-10-31T04:12:03.683Z,73.43
2022-10-31T04:14:34.477Z,73.64
2022-10-31T04:17:07.083Z,73.77
2022-10-31T04:19:35.069Z,73.59
2022-10-31T04:22:02.597Z,73.84
2022-10-31T04:24:31.570Z,73.49
2022-10-31T04:26:59.527Z,73.56
2022-10-31T04:29:26.811Z,74.02
2022-10-31T04:31:54.088Z,74.25
2022-10-31T04:34:22.374Z,73.67
2022-10-31T04:36:49.630Z,74.53
2022-10-31T04:39:20.325Z,74.18
2022-10-31T04:41:51.379Z,73.99
2022-10-31T04:44:19.068Z,73.65
2022-10-31T04:46:46.338Z,74.12
2022-10-31T04:49:13.919Z,74.06
2022-10-31T04:51:41.979Z,74.56
2022-10-31T04:54:09.342Z,74.60
2022-10-31T04:56:36.619Z,74.60
2022-10-31T04:59:04.052Z,74.87
2022-10-31T05:01:31.370Z,74.31
2022-10-31T05:03:58.706Z,74.44
2022-10-31T05:06:26.760Z,74.83
2022-10-31T05:08:54.088Z,74.47
2022-10-31T05:11:21.340Z,74.91
2022-10-31T05:13:48.619Z,74.73
2022-10-31T05:16:15.863Z,74.98
2022-10-31T05:18:43.132Z,75.15
2022-10-31T05:21:10.423Z,74.60
2022-10-31T05:23:37.679Z,75.10
2022-10-31T05:26:05.588Z,75.04
2022-10-31T05:28:32.871Z,74.83
2022-10-31T05:31:00.142Z,74.67
2022-10-31T05:33:27.387Z,74.81
2022-10-31T05:35:55.615Z,74.57
2022-10-31T05:38:22.882Z,74.53
2022-10-31T05:40:50.175Z,75.26
2022-10-31T05:43:17.445Z,74.75
2022-10-31T05:45:44.719Z,75.19
2022-10-31T05:48:12.069Z,75.26
2022-10-31T05:50:39.336Z,74.93
2022-10-31T05:53:07.144Z,75.48
2022-10-31T05:55:34.525Z,75.70
2022-10-31T05:58:02.213Z,75.07
2022-10-31T06:00:30.670Z,75.98
2022-10-31T06:05:57.347Z,75.40
2022-10-31T06:08:24.667Z,75.47
2022-10-31T06:10:54.007Z,76.14
2022-10-31T06:13:21.275Z,75.28
2022-10-31T06:15:48.592Z,75.18
2022-10-31T06:18:15.859Z,74.92
2022-10-31T06:20:43.135Z,75.09
2022-10-31T06:23:10.595Z,74.68
2022-10-31T06:25:37.939Z,74.79
2022-10-31T06:28:05.843Z,74.58
2022-10-31T06:30:34.267Z,74.60
2022-10-31T06:33:07.606Z,74.44
2022-10-31T06:35:34.913Z,74.93
2022-10-31T06:38:03.102Z,74.53
2022-10-31T06:40:30.656Z,74.85
2022-10-31T06:43:02.762Z,75.09
2022-10-31T06:45:30.567Z,74.81
2022-10-31T06:50:45.957Z,74.83
2022-10-31T06:53:15.140Z,74.54
2022-10-31T06:55:43.477Z,74.02
2022-10-31T06:58:12.256Z,74.02
2022-10-31T07:00:39.633Z,73.97
2022-10-31T07:03:13.655Z,74.23
2022-10-31T07:05:41.304Z,74.44
2022-10-31T07:08:13.599Z,74.27
2022-10-31T07:10:43.777Z,73.61
2022-10-31T07:13:15.793Z,74.16
2022-10-31T07:15:45.013Z,74.19
2022-10-31T07:18:13.489Z,74.11
2022-10-31T07:20:40.811Z,73.97
2022-10-31T07:23:11.756Z,74.48
2022-10-31T07:25:40.832Z,74.39
2022-10-31T07:28:12.757Z,74.26
2022-10-31T07:30:40.456Z,73.96
2022-10-31T07:33:07.800Z,73.58
2022-10-31T07:35:35.862Z,73.37
2022-10-31T07:38:13.996Z,73.27
2022-10-31T07:40:43.424Z,73.09
2022-10-31T07:43:14.602Z,72.97
2022-10-31T07:45:42.450Z,72.64
2022-10-31T07:48:09.783Z,72.38
2022-10-31T07:50:37.079Z,72.48
2022-10-31T07:53:13.996Z,72.34
2022-10-31T07:55:42.529Z,72.40
2022-10-31T07:58:17.793Z,72.32
2022-10-31T08:00:48.482Z,72.11
2022-10-31T08:03:20.125Z,72.52
2022-10-31T08:05:48.191Z,72.50
2022-10-31T08:08:16.648Z,72.08
2022-10-31T08:10:44.311Z,72.45
2022-10-31T08:13:14.827Z,71.83
2022-10-31T08:15:43.132Z,72.19
2022-10-31T08:18:15.936Z,71.90
2022-10-31T08:20:46.396Z,71.39
2022-10-31T08:23:14.978Z,72.05
2022-10-31T08:25:44.934Z,71.77
2022-10-31T08:28:12.822Z,71.63
2022-10-31T08:30:41.235Z,71.32
2022-10-31T08:33:20.340Z,71.15
2022-10-31T08:35:48.536Z,71.80
2022-10-31T08:38:16.085Z,71.83
2022-10-31T08:40:43.829Z,71.90
2022-10-31T08:43:18.228Z,71.28
2022-10-31T08:45:50.318Z,71.48
2022-10-31T08:48:18.742Z,71.45
2022-10-31T08:50:47.304Z,71.02
2022-10-31T08:53:20.432Z,71.07
2022-10-31T08:55:48.497Z,71.22
2022-10-31T08:58:21.090Z,71.14
2022-10-31T09:00:55.604Z,70.90
2022-10-31T09:03:28.226Z,70.31
2022-10-31T09:06:06.632Z,70.76
2022-10-31T09:08:34.674Z,70.58
2022-10-31T09:11:03.085Z,69.87
2022-10-31T09:13:30.638Z,69.97
2022-10-31T09:15:59.664Z,70.19
2022-10-31T09:18:28.931Z,69.78
2022-10-31T09:21:00.405Z,69.05
2022-10-31T09:23:28.015Z,68.82
2022-10-31T09:25:56.230Z,68.87
2022-10-31T09:28:26.115Z,69.07
2022-10-31T09:30:55.350Z,68.77
2022-10-31T09:33:23.335Z,68.35
2022-10-31T09:35:50.869Z,68.49
2022-10-31T09:38:22.212Z,68.85
2022-10-31T09:41:19.282Z,68.59
2022-10-31T09:44:22.835Z,68.58
2022-10-31T09:47:36.713Z,68.25
2022-10-31T09:51:01.466Z,68.47
2022-10-31T09:54:02.512Z,68.14
2022-10-31T09:56:32.063Z,67.92
2022-10-31T09:59:03.537Z,68.26
2022-10-31T10:02:35.677Z,68.26
2022-10-31T10:05:14.331Z,68.56
2022-10-31T10:08:15.303Z,67.84
2022-10-31T10:11:19.030Z,67.66
2022-10-31T10:15:01.624Z,67.01
2022-10-31T10:18:06.003Z,66.15
2022-10-31T10:21:26.672Z,66.03
2022-10-31T10:24:33.343Z,64.24
2022-10-31T10:27:55.664Z,64.09
2022-10-31T10:30:47.889Z,63.63
2022-10-31T10:33:36.270Z,62.41
2022-10-31T10:36:41.474Z,61.96
2022-10-31T10:39:29.443Z,61.39
2022-10-31T10:42:18.419Z,61.47
2022-10-31T10:45:09.566Z,60.15
2022-10-31T10:48:03.013Z,60.02
2022-10-31T10:50:45.396Z,58.61
2022-10-31T10:54:09.449Z,57.74
2022-10-31T10:57:24.982Z,56.51
2022-10-31T10:59:53.128Z,56.74
2022-10-31T11:02:31.590Z,56.79
2022-10-31T11:05:03.340Z,57.49
2022-10-31T11:07:41.240Z,57.55
2022-10-31T11:10:16.776Z,57.69
2022-10-31T11:13:22.155Z,57.83
2022-10-31T11:16:05.439Z,56.75
2022-10-31T11:18:46.376Z,55.72
2022-10-31T11:21:34.251Z,53.33
2022-10-31T11:24:28.384Z,53.27
2022-10-31T11:27:22.319Z,51.48
2022-10-31T11:29:54.506Z,51.64
2022-10-31T11:32:28.344Z,49.92
2022-10-31T11:35:09.461Z,49.05
2022-10-31T11:37:43.672Z,50.27
2022-10-31T11:40:26.961Z,48.82
2022-10-31T11:42:59.782Z,47.72
2022-10-31T11:45:34.891Z,46.56
2022-10-31T11:48:15.062Z,47.94
2022-10-31T11:50:48.375Z,48.26
2022-10-31T11:53:25.590Z,46.28
2022-10-31T11:56:20.968Z,46.19
2022-10-31T11:59:32.420Z,46.22
2022-10-31T12:02:02.698Z,45.93
2022-10-31T12:04:46.560Z,45.45
2022-10-31T12:07:13.893Z,44.99
2022-10-31T12:09:42.358Z,44.63
2022-10-31T12:12:15.106Z,44.61
2022-10-31T12:15:28.918Z,43.63
2022-10-31T12:19:05.653Z,43.51
2022-10-31T12:22:35.071Z,41.45
2022-10-31T12:25:39.350Z,40.88
2022-10-31T12:29:13.062Z,40.78
2022-10-31T12:32:06.976Z,40.79
2022-10-31T12:35:05.328Z,40.07
2022-10-31T12:38:07.667Z,39.96
2022-10-31T12:41:20.144Z,39.91
2022-10-31T12:44:26.049Z,41.63
2022-10-31T12:47:28.214Z,42.94
2022-10-31T12:50:56.769Z,43.12
2022-10-31T12:53:53.203Z,43.19
2022-10-31T12:56:41.801Z,43.71
2022-10-31T12:59:47.247Z,44.06
2022-10-31T13:02:45.364Z,44.45
2022-10-31T13:05:44.370Z,44.64
2022-10-31T13:08:25.719Z,44.76
2022-10-31T13:11:17.576Z,44.99
2022-10-31T13:14:27.232Z,45.61
2022-10-31T13:16:57.311Z,45.48
2022-10-31T13:19:37.052Z,46.13
2022-10-31T13:22:32.261Z,46.35
2022-10-31T13:25:29.624Z,46.93
2022-10-31T13:31:43.082Z,47.93
2022-10-31T13:34:31.435Z,48.09
2022-10-31T13:37:26.630Z,47.89
2022-10-31T13:40:33.824Z,47.95
2022-10-31T13:43:57.886Z,47.40
2022-10-31T13:46:32.953Z,48.23
2022-10-31T13:49:00.754Z,47.83
2022-10-31T13:51:36.027Z,47.45
2022-10-31T13:54:35.023Z,47.45
2022-10-31T13:57:02.683Z,47.78
2022-10-31T13:59:33.751Z,48.06
2022-10-31T14:02:14.930Z,47.41
2022-10-31T14:05:09.938Z,46.99
2022-10-31T14:07:46.598Z,47.73
2022-10-31T14:10:47.688Z,46.44
2022-10-31T14:13:46.292Z,46.76
2022-10-31T14:16:32.271Z,47.04
2022-10-31T14:19:14.766Z,46.98
2022-10-31T14:21:49.356Z,47.89
2022-10-31T14:24:25.711Z,47.16
2022-10-31T14:27:27.231Z,47.38
2022-10-31T14:29:54.559Z,47.65
2022-10-31T14:32:27.422Z,46.87
2022-10-31T14:34:58.535Z,47.43
2022-10-31T14:38:09.314Z,47.33
2022-10-31T14:41:33.722Z,47.18
2022-10-31T14:44:27.963Z,46.76
2022-10-31T14:47:47.501Z,47.12
2022-10-31T14:50:43.664Z,46.93
2022-10-31T14:53:33.296Z,47.18
2022-10-31T14:56:06.715Z,47.58
2022-10-31T14:58:47.390Z,47.40
2022-10-31T15:01:30.708Z,47.26
2022-10-31T15:04:24.748Z,47.16
2022-10-31T15:07:25.194Z,47.67
2022-10-31T15:10:07.170Z,47.79
2022-10-31T15:12:39.823Z,48.45
2022-10-31T15:15:24.365Z,49.01
2022-10-31T15:18:04.923Z,49.11
2022-10-31T15:20:48.227Z,48.54
2022-10-31T15:23:30.451Z,49.24
2022-10-31T15:26:06.471Z,49.57
2022-10-31T15:28:33.972Z,48.98
2022-10-31T15:31:04.182Z,49.27
2022-10-31T15:33:47.919Z,49.97
2022-10-31T15:36:29.885Z,49.86
2022-10-31T15:39:00.159Z,50.26
2022-10-31T15:41:56.903Z,49.48
2022-10-31T15:44:37.282Z,50.49
2022-10-31T15:47:25.433Z,51.79
2022-10-31T15:49:59.692Z,52.30
2022-10-31T15:52:48.510Z,52.28
2022-10-31T15:55:31.438Z,52.13
2022-10-31T15:58:11.363Z,52.56
2022-10-31T16:00:39.617Z,52.28
2022-10-31T16:03:32.917Z,52.62
2022-10-31T16:06:05.590Z,53.91
2022-10-31T16:08:37.070Z,54.27
2022-10-31T16:11:13.661Z,55.20
2022-10-31T16:14:25.481Z,56.77
2022-10-31T16:16:58.712Z,58.31
2022-10-31T16:19:34.757Z,58.13
2022-10-31T16:22:37.368Z,58.51
2022-10-31T16:25:37.618Z,57.29
2022-10-31T16:28:24.518Z,58.50
2022-10-31T16:30:57.764Z,57.65
2022-10-31T16:33:37.929Z,57.79
2022-10-31T16:36:39.357Z,58.03
2022-10-31T16:39:08.123Z,58.30
2022-10-31T16:41:47.046Z,59.41
2022-10-31T16:44:26.945Z,60.18
2022-10-31T16:47:17.927Z,60.02
2022-10-31T16:49:50.748Z,60.29
2022-10-31T16:52:19.437Z,60.60
2022-10-31T16:54:46.831Z,60.41
2022-10-31T16:57:21.144Z,60.42
2022-10-31T16:59:54.830Z,59.96
2022-10-31T17:02:22.803Z,60.49
2022-10-31T17:04:53.817Z,61.21
2022-10-31T17:07:24.085Z,60.64
2022-10-31T17:09:51.500Z,60.58
2022-10-31T17:12:27.582Z,60.82
2022-10-31T17:14:55.046Z,61.33
2022-10-31T17:17:22.378Z,61.41
2022-10-31T17:19:49.942Z,61.76
2022-10-31T17:22:17.377Z,61.92
2022-10-31T17:24:44.836Z,61.70
2022-10-31T17:27:12.387Z,62.09
2022-10-31T17:29:39.822Z,61.70
2022-10-31T17:32:07.317Z,62.08
2022-10-31T17:34:34.849Z,63.37
2022-10-31T17:37:02.263Z,62.89
2022-10-31T17:39:29.650Z,62.49
2022-10-31T17:41:57.091Z,62.18
2022-10-31T17:44:24.378Z,63.31
2022-10-31T17:46:51.630Z,62.94
2022-10-31T17:49:19.486Z,62.78
2022-10-31T17:51:46.777Z,64.41
2022-10-31T17:54:18.362Z,64.34
2022-10-31T17:56:45.698Z,63.97
2022-10-31T17:59:12.961Z,63.18
2022-10-31T18:01:40.371Z,63.79
2022-10-31T18:04:07.669Z,63.08
2022-10-31T18:06:34.932Z,63.06
2022-10-31T18:09:06.932Z,63.59
2022-10-31T18:11:34.240Z,63.47
2022-10-31T18:14:01.618Z,63.04
2022-10-31T18:16:29.760Z,63.22
2022-10-31T18:19:00.763Z,62.73
2022-10-31T18:21:30.785Z,63.34
2022-10-31T18:24:00.592Z,63.55
2022-10-31T18:26:28.563Z,63.43
2022-10-31T18:28:55.900Z,64.34
2022-10-31T18:31:23.274Z,63.85
2022-10-31T18:33:55.234Z,64.27
2022-10-31T18:36:23.805Z,65.05
2022-10-31T18:38:51.068Z,64.18
2022-10-31T18:41:18.795Z,64.19
2022-10-31T18:43:46.171Z,64.32
2022-10-31T18:46:17.587Z,64.50
2022-10-31T18:48:46.416Z,65.74
2022-10-31T18:51:18.364Z,64.79
2022-10-31T18:53:56.423Z,64.95
2022-10-31T18:56:25.251Z,65.44
2022-10-31T18:58:53.063Z,65.61
2022-10-31T19:01:22.401Z,65.95
2022-10-31T19:03:56.241Z,65.63
2022-10-31T19:06:26.762Z,65.50
2022-10-31T19:09:05.170Z,65.55
2022-10-31T19:11:34.925Z,65.91
2022-10-31T19:14:02.447Z,65.91
2022-10-31T19:16:30.288Z,65.95
2022-10-31T19:19:00.017Z,66.18
2022-10-31T19:21:27.905Z,66.34
2022-10-31T19:23:56.507Z,66.48
2022-10-31T19:26:26.472Z,66.16
2022-10-31T19:28:56.410Z,66.50
2022-10-31T19:31:23.965Z,66.93
2022-10-31T19:33:51.257Z,66.39
2022-10-31T19:36:20.850Z,66.77
2022-10-31T19:38:52.481Z,66.53
2022-10-31T19:41:28.283Z,66.52
2022-10-31T19:43:59.414Z,65.95
2022-10-31T19:46:51.783Z,66.20
2022-10-31T19:49:14.547Z,66.07
2022-10-31T19:51:43.302Z,65.69
2022-10-31T19:54:12.168Z,66.82
2022-10-31T19:56:39.438Z,67.08
2022-10-31T19:59:06.744Z,66.54
2022-10-31T20:01:34.085Z,66.54
2022-10-31T20:04:01.640Z,66.00
2022-10-31T20:06:41.413Z,66.91
2022-10-31T20:09:16.060Z,67.03
2022-10-31T20:11:46.361Z,66.87
2022-10-31T20:14:18.513Z,66.89
2022-10-31T20:16:46.694Z,67.74
2022-10-31T20:19:14.327Z,67.55
2022-10-31T20:21:41.962Z,67.78
2022-10-31T20:24:11.054Z,67.39
2022-10-31T20:26:41.009Z,67.60
2022-10-31T20:29:15.933Z,67.88
2022-10-31T20:31:45.658Z,67.30
2022-10-31T20:34:14.348Z,67.61
2022-10-31T20:36:41.885Z,67.75
2022-10-31T20:39:10.322Z,68.31
2022-10-31T20:41:39.443Z,68.81
2022-10-31T20:44:07.199Z,68.30
2022-10-31T20:46:34.575Z,68.07
2022-10-31T20:49:02.138Z,68.01
2022-10-31T20:51:31.645Z,67.33
2022-10-31T20:54:01.168Z,67.90
2022-10-31T20:56:29.915Z,67.71
2022-10-31T20:58:57.985Z,67.81
2022-10-31T21:01:33.504Z,67.75
2022-10-31T21:04:01.294Z,67.93
2022-10-31T21:06:30.349Z,68.13
2022-10-31T21:08:58.402Z,68.08
2022-10-31T21:11:28.587Z,68.19
2022-10-31T21:13:56.237Z,68.89
2022-10-31T21:16:35.830Z,68.29
2022-10-31T21:19:05.178Z,69.13
2022-10-31T21:21:36.808Z,68.65
2022-10-31T21:24:16.243Z,68.97
2022-10-31T21:26:50.002Z,68.94
2022-10-31T21:29:19.214Z,69.34
2022-10-31T21:31:47.844Z,68.84
2022-10-31T21:34:15.903Z,68.70
2022-10-31T21:36:43.208Z,69.07
2022-10-31T21:39:10.816Z,68.80
2022-10-31T21:41:38.118Z,69.07
2022-10-31T21:44:06.507Z,68.58
2022-10-31T21:46:34.543Z,69.08
2022-10-31T21:49:04.316Z,68.81
2022-10-31T21:51:36.063Z,68.97
2022-10-31T21:54:22.668Z,68.18
2022-10-31T21:56:51.057Z,69.12
2022-10-31T21:59:18.327Z,68.86
2022-10-31T22:01:45.704Z,68.96
2022-10-31T22:04:13.392Z,68.86
2022-10-31T22:06:40.664Z,68.97
2022-10-31T22:09:14.072Z,69.12
2022-10-31T22:11:43.322Z,69.25
2022-10-31T22:14:15.242Z,69.49
2022-10-31T22:16:43.537Z,69.08
2022-10-31T22:19:14.298Z,69.73
2022-10-31T22:21:48.739Z,69.28
2022-10-31T22:24:18.396Z,69.39
2022-10-31T22:26:46.149Z,69.57
2022-10-31T22:29:18.828Z,69.67
2022-10-31T22:31:53.546Z,69.99
2022-10-31T22:34:24.742Z,69.31
2022-10-31T22:36:53.794Z,69.90
2022-10-31T22:39:21.166Z,69.27
2022-10-31T22:41:48.425Z,69.52
2022-10-31T22:44:15.692Z,69.78
2022-10-31T22:46:42.955Z,69.63
2022-10-31T22:49:14.990Z,69.64
2022-10-31T22:51:43.909Z,69.26
2022-10-31T22:54:18.258Z,69.49
2022-10-31T22:56:46.190Z,69.32
2022-10-31T22:59:16.645Z,68.93
2022-10-31T23:01:45.812Z,69.01
2022-10-31T23:04:16.152Z,68.75
2022-10-31T23:06:43.941Z,69.03
2022-10-31T23:09:16.891Z,68.77
2022-10-31T23:11:45.040Z,68.95
2022-10-31T23:14:20.743Z,69.07
2022-10-31T23:16:56.925Z,69.80
2022-10-31T23:19:30.472Z,69.52
2022-10-31T23:22:04.071Z,69.18
2022-10-31T23:24:46.185Z,69.45
2022-10-31T23:27:19.786Z,69.24
2022-10-31T23:29:58.704Z,69.60
2022-10-31T23:32:35.236Z,69.01
2022-10-31T23:35:10.166Z,68.95
2022-10-31T23:37:39.225Z,68.84
2022-10-31T23:40:08.746Z,69.13
2022-10-31T23:42:36.106Z,68.65
2022-10-31T23:45:03.714Z,68.89
2022-10-31T23:47:30.973Z,69.00
2022-10-31T23:49:58.225Z,69.19
2022-10-31T23:52:25.525Z,69.15
2022-10-31T23:54:52.880Z,69.23
2022-10-31T23:57:20.955Z,69.26
2022-10-31T23:59:48.201Z,68.77
